Time;durP1;ratioP1;P1;durP2;ratioP2;P2;SDS_P1;SDS_P2;PMS_P1;PMS_P2;Temp;Humidity;BMP_temperature;BMP_pressure;BME280_temperature;BME280_humidity;BME280_pressure;Samples;Min_cycle;Max_cycle;Signal;HPM_P1;HPM_P2
2023/10/26 00:00:29;;;;;;;27.63;19.80;;;11.10;99.90;;;;;;5034897;28;20628;-55
2023/10/26 00:02:55;;;;;;;27.48;20.10;;;11.10;99.90;;;;;;5034777;28;20649;-54
2023/10/26 00:05:21;;;;;;;32.50;21.88;;;11.10;99.90;;;;;;5034895;28;20254;-57
2023/10/26 00:07:47;;;;;;;31.85;21.27;;;11.10;99.90;;;;;;5017508;28;20218;-58
2023/10/26 00:10:13;;;;;;;34.83;21.85;;;11.10;99.90;;;;;;5034673;28;20180;-57
2023/10/26 00:12:39;;;;;;;34.20;22.40;;;11.10;99.90;;;;;;5034496;28;20211;-57
2023/10/26 00:15:06;;;;;;;31.13;22.63;;;11.10;99.90;;;;;;5016893;28;20252;-55
2023/10/26 00:17:32;;;;;;;39.42;25.30;;;11.10;99.90;;;;;;5034378;28;20207;-55
2023/10/26 00:19:58;;;;;;;35.75;24.75;;;11.10;99.90;;;;;;5033126;28;20206;-57
2023/10/26 00:22:24;;;;;;;44.72;25.00;;;11.10;99.90;;;;;;5034242;28;20250;-53
2023/10/26 00:24:51;;;;;;;39.28;26.67;;;11.00;99.90;;;;;;5034467;28;20218;-60
2023/10/26 00:27:19;;;;;;;41.60;28.23;;;11.10;99.90;;;;;;5034540;28;20180;-56
2023/10/26 00:29:45;;;;;;;43.15;28.08;;;11.00;99.90;;;;;;5034293;28;20676;-57
2023/10/26 00:32:11;;;;;;;41.72;27.80;;;11.00;99.90;;;;;;5016827;28;20304;-55
2023/10/26 00:34:37;;;;;;;40.00;28.02;;;11.00;99.90;;;;;;5033734;28;20656;-55
2023/10/26 00:37:03;;;;;;;55.05;34.63;;;11.10;99.90;;;;;;5016344;28;20187;-56
2023/10/26 00:39:29;;;;;;;47.42;31.55;;;11.00;99.90;;;;;;5000556;28;20180;-59
2023/10/26 00:41:55;;;;;;;53.72;33.38;;;11.00;99.90;;;;;;5034157;28;20185;-59
2023/10/26 00:44:23;;;;;;;51.83;33.55;;;11.00;99.90;;;;;;5034180;28;20291;-59
2023/10/26 00:46:50;;;;;;;52.65;33.55;;;11.00;99.90;;;;;;5034442;28;20208;-59
2023/10/26 00:49:20;;;;;;;56.88;34.92;;;11.00;99.90;;;;;;5016242;28;20231;-58
2023/10/26 00:51:50;;;;;;;50.15;33.78;;;11.10;99.90;;;;;;5016925;28;20184;-57
2023/10/26 00:54:19;;;;;;;56.53;35.75;;;11.00;99.90;;;;;;5016402;28;20631;-55
2023/10/26 00:56:47;;;;;;;54.50;35.13;;;11.00;99.90;;;;;;5016465;28;20180;-57
2023/10/26 00:59:15;;;;;;;60.83;36.60;;;11.00;99.90;;;;;;5033603;28;20238;-58
2023/10/26 01:01:45;;;;;;;58.65;38.03;;;11.10;99.90;;;;;;5032465;28;20628;-59
2023/10/26 01:04:14;;;;;;;56.58;36.53;;;11.10;99.90;;;;;;5034328;28;20284;-59
2023/10/26 01:06:44;;;;;;;62.58;38.13;;;11.10;99.90;;;;;;5016051;28;20235;-56
2023/10/26 01:09:10;;;;;;;62.83;38.55;;;11.10;99.90;;;;;;5016575;28;20188;-55
2023/10/26 01:11:37;;;;;;;68.55;40.03;;;11.10;99.90;;;;;;5015743;28;20634;-59
2023/10/26 01:14:04;;;;;;;61.97;38.92;;;11.10;99.90;;;;;;5033394;28;20817;-59
2023/10/26 01:16:31;;;;;;;64.75;40.47;;;11.10;99.90;;;;;;5015911;28;20275;-57
2023/10/26 01:19:01;;;;;;;64.70;41.80;;;11.10;99.90;;;;;;5033420;28;20680;-59
2023/10/26 01:21:30;;;;;;;66.80;42.45;;;11.00;99.90;;;;;;5033242;28;20238;-59
2023/10/26 01:23:57;;;;;;;63.63;42.33;;;11.00;99.90;;;;;;5033795;28;20180;-57
2023/10/26 01:26:23;;;;;;;70.35;42.42;;;11.00;99.90;;;;;;5033521;28;20267;-56
2023/10/26 01:28:49;;;;;;;70.65;43.45;;;11.00;99.90;;;;;;5015504;28;20211;-57
2023/10/26 01:31:19;;;;;;;72.95;44.40;;;11.10;99.90;;;;;;5015381;28;20175;-54
2023/10/26 01:33:45;;;;;;;69.38;44.75;;;11.00;99.90;;;;;;5015668;28;20219;-57
2023/10/26 01:36:11;;;;;;;76.60;45.05;;;11.00;99.90;;;;;;5016124;28;20192;-56
2023/10/26 01:38:37;;;;;;;74.30;45.17;;;11.10;99.90;;;;;;5032994;28;20180;-57
2023/10/26 01:41:04;;;;;;;72.80;46.72;;;11.10;99.90;;;;;;5032903;28;20190;-55
2023/10/26 01:43:30;;;;;;;81.22;46.28;;;11.00;99.90;;;;;;5033178;28;20222;-56
2023/10/26 01:45:56;;;;;;;75.18;46.90;;;11.10;99.90;;;;;;5014193;28;20613;-55
2023/10/26 01:48:27;;;;;;;76.55;46.70;;;11.10;99.90;;;;;;5015595;28;20195;-54
2023/10/26 01:50:53;;;;;;;76.03;46.47;;;11.10;99.90;;;;;;5033068;28;20180;-54
2023/10/26 01:53:21;;;;;;;81.70;47.58;;;11.10;99.90;;;;;;5032865;28;20314;-57
2023/10/26 01:55:47;;;;;;;71.32;45.53;;;11.10;99.90;;;;;;5015207;28;20180;-55
2023/10/26 01:58:13;;;;;;;76.82;46.50;;;11.10;99.90;;;;;;5015117;28;20179;-58
2023/10/26 02:00:40;;;;;;;76.88;48.40;;;11.20;99.90;;;;;;5014827;28;20186;-55
2023/10/26 02:03:06;;;;;;;73.07;46.75;;;11.10;99.90;;;;;;5015259;28;20187;-55
2023/10/26 02:05:33;;;;;;;81.40;47.22;;;11.10;99.90;;;;;;5014718;28;20734;-58
2023/10/26 02:07:59;;;;;;;77.28;47.53;;;11.10;99.90;;;;;;5014870;28;20186;-58
2023/10/26 02:10:29;;;;;;;74.38;46.03;;;11.10;99.90;;;;;;5032526;28;20724;-54
2023/10/26 02:12:56;;;;;;;73.25;47.10;;;11.10;99.90;;;;;;5015241;28;20210;-55
2023/10/26 02:15:22;;;;;;;79.25;47.45;;;11.10;99.90;;;;;;5014735;28;20604;-58
2023/10/26 02:17:49;;;;;;;73.82;46.30;;;11.10;99.90;;;;;;5014748;28;20219;-56
2023/10/26 02:20:15;;;;;;;77.15;47.38;;;11.10;99.90;;;;;;5015018;28;20173;-58
2023/10/26 02:22:41;;;;;;;86.50;46.53;;;11.10;99.90;;;;;;5032421;28;20180;-57
2023/10/26 02:25:07;;;;;;;74.65;45.85;;;11.10;99.90;;;;;;5033088;28;20222;-58
2023/10/26 02:27:34;;;;;;;99.32;60.75;;;11.10;99.90;;;;;;5014621;28;20259;-54
2023/10/26 02:30:01;;;;;;;75.95;47.65;;;11.10;99.90;;;;;;5014887;28;20180;-57
2023/10/26 02:32:27;;;;;;;77.00;47.58;;;11.10;99.90;;;;;;5014410;28;20264;-59
2023/10/26 02:34:52;;;;;;;74.85;46.53;;;11.10;99.90;;;;;;5032512;28;20199;-57
2023/10/26 02:37:19;;;;;;;79.20;45.90;;;11.10;99.90;;;;;;5032136;28;20176;-55
2023/10/26 02:39:46;;;;;;;73.85;46.22;;;11.10;99.90;;;;;;5032326;28;20702;-55
2023/10/26 02:42:13;;;;;;;74.88;45.30;;;11.10;99.90;;;;;;5032094;28;20176;-58
2023/10/26 02:44:39;;;;;;;79.45;45.00;;;11.10;99.90;;;;;;5032013;28;20636;-55
2023/10/26 02:47:05;;;;;;;72.03;46.70;;;11.10;99.90;;;;;;5014311;28;20283;-57
2023/10/26 02:49:31;;;;;;;66.90;43.65;;;11.10;99.90;;;;;;5032268;28;20218;-59
2023/10/26 02:51:57;;;;;;;72.75;45.60;;;11.10;99.90;;;;;;5014495;28;20186;-58
2023/10/26 02:54:27;;;;;;;73.93;44.83;;;11.10;99.90;;;;;;5014551;28;20617;-58
2023/10/26 02:56:53;;;;;;;73.55;44.03;;;11.10;99.90;;;;;;5034872;28;20194;-55
2023/10/26 02:59:19;;;;;;;68.05;44.33;;;11.10;99.90;;;;;;5037533;28;20176;-56
2023/10/26 03:01:45;;;;;;;70.47;43.65;;;11.10;99.90;;;;;;5021235;28;20241;-53
2023/10/26 03:04:11;;;;;;;75.93;45.40;;;11.10;99.90;;;;;;5020452;28;20232;-51
2023/10/26 03:06:40;;;;;;;72.32;42.95;;;11.10;99.90;;;;;;5038355;28;20353;-57
2023/10/26 03:09:10;;;;;;;75.95;44.08;;;11.10;99.90;;;;;;5021046;28;20172;-52
2023/10/26 03:11:36;;;;;;;70.32;43.15;;;11.10;99.90;;;;;;5038396;28;20179;-56
2023/10/26 03:14:03;;;;;;;71.18;44.92;;;11.10;99.90;;;;;;5004581;28;20563;-57
2023/10/26 03:16:29;;;;;;;67.97;43.53;;;11.10;99.90;;;;;;5020619;28;20647;-56
2023/10/26 03:18:55;;;;;;;67.45;44.92;;;11.10;99.90;;;;;;5038818;28;20180;-53
2023/10/26 03:21:21;;;;;;;75.60;45.45;;;11.10;99.90;;;;;;5020914;28;20270;-56
2023/10/26 03:23:53;;;;;;;71.60;44.00;;;11.10;99.90;;;;;;5020449;28;20648;-56
2023/10/26 03:26:20;;;;;;;69.65;43.28;;;11.10;99.90;;;;;;5021462;28;20581;-58
2023/10/26 03:28:48;;;;;;;73.60;42.30;;;11.00;99.90;;;;;;5038370;28;20583;-58
2023/10/26 03:31:14;;;;;;;72.43;44.35;;;11.00;99.90;;;;;;5038129;28;20183;-54
2023/10/26 03:33:40;;;;;;;73.13;42.72;;;11.00;99.90;;;;;;5038404;28;20238;-57
2023/10/26 03:36:14;;;;;;;75.15;43.80;;;11.00;99.90;;;;;;5020721;28;20184;-59
2023/10/26 03:38:41;;;;;;;67.50;42.58;;;11.00;99.90;;;;;;5020808;28;20213;-59
2023/10/26 03:41:07;;;;;;;74.03;44.90;;;11.00;99.90;;;;;;5038518;28;20207;-59
2023/10/26 03:43:33;;;;;;;69.72;43.17;;;11.00;99.90;;;;;;5038169;28;20628;-53
2023/10/26 03:45:59;;;;;;;73.60;43.65;;;11.00;99.90;;;;;;5038467;28;20186;-56
2023/10/26 03:48:25;;;;;;;74.13;44.90;;;10.90;99.90;;;;;;5003847;28;20179;-60
2023/10/26 03:50:51;;;;;;;70.00;43.42;;;11.00;99.90;;;;;;5020422;28;20183;-56
2023/10/26 03:53:17;;;;;;;72.38;45.30;;;10.90;99.90;;;;;;5020210;28;20306;-57
2023/10/26 03:55:43;;;;;;;77.53;45.95;;;10.90;99.90;;;;;;5038316;28;20194;-58
2023/10/26 03:58:11;;;;;;;68.03;42.80;;;10.90;99.90;;;;;;5038156;28;20186;-58
2023/10/26 04:00:37;;;;;;;72.07;44.22;;;10.90;99.90;;;;;;5020215;28;20241;-56
2023/10/26 04:03:03;;;;;;;76.70;46.38;;;10.80;99.90;;;;;;5020118;28;20172;-56
2023/10/26 04:05:29;;;;;;;79.90;44.97;;;10.80;99.90;;;;;;5020270;28;20220;-58
2023/10/26 04:07:56;;;;;;;75.55;46.00;;;10.80;99.90;;;;;;5036163;28;20188;-57
2023/10/26 04:10:22;;;;;;;74.10;46.13;;;10.80;99.90;;;;;;5034807;28;20274;-56
2023/10/26 04:12:48;;;;;;;75.68;45.40;;;10.80;99.90;;;;;;5034693;28;20283;-60
2023/10/26 04:15:14;;;;;;;75.68;46.38;;;10.80;99.90;;;;;;5034623;28;20194;-57
2023/10/26 04:17:40;;;;;;;81.07;47.90;;;10.80;99.90;;;;;;5016966;28;20176;-61
2023/10/26 04:20:07;;;;;;;78.55;45.78;;;10.80;99.90;;;;;;5034514;28;20208;-53
2023/10/26 04:22:33;;;;;;;76.28;45.33;;;10.80;99.90;;;;;;5034955;28;20195;-57
2023/10/26 04:24:59;;;;;;;77.55;46.13;;;10.80;99.90;;;;;;5034522;28;20194;-55
2023/10/26 04:27:25;;;;;;;78.55;47.83;;;10.80;99.90;;;;;;5034782;28;20176;-56
2023/10/26 04:29:51;;;;;;;84.03;46.78;;;10.80;99.90;;;;;;5034535;28;20179;-55
2023/10/26 04:32:17;;;;;;;76.55;45.47;;;10.80;99.90;;;;;;5034887;28;20577;-55
2023/10/26 04:34:46;;;;;;;76.70;47.42;;;10.80;99.90;;;;;;5034573;28;20192;-56
2023/10/26 04:37:12;;;;;;;79.97;46.08;;;10.90;99.90;;;;;;5034300;28;20261;-57
2023/10/26 04:39:41;;;;;;;79.43;46.70;;;10.80;99.90;;;;;;5034891;28;20623;-54
2023/10/26 04:42:07;;;;;;;83.28;47.33;;;10.80;99.90;;;;;;5034485;28;20184;-53
2023/10/26 04:44:34;;;;;;;76.43;46.00;;;10.90;99.90;;;;;;5016016;28;20250;-57
2023/10/26 04:47:00;;;;;;;77.70;45.75;;;10.90;99.90;;;;;;5016516;28;20255;-54
2023/10/26 04:49:25;;;;;;;73.43;44.80;;;10.80;99.90;;;;;;5016901;28;20182;-59
2023/10/26 04:51:51;;;;;;;74.00;44.80;;;10.80;99.90;;;;;;5034342;28;20184;-58
2023/10/26 04:54:17;;;;;;;76.53;46.42;;;10.80;99.90;;;;;;5034281;28;20655;-57
2023/10/26 04:56:43;;;;;;;81.93;46.88;;;10.80;99.90;;;;;;5016594;28;20286;-53
2023/10/26 04:59:09;;;;;;;74.68;46.22;;;10.80;99.90;;;;;;5033922;28;20184;-55
2023/10/26 05:01:35;;;;;;;73.85;46.33;;;10.80;99.90;;;;;;5032889;28;20633;-52
2023/10/26 05:04:01;;;;;;;91.35;47.17;;;10.70;99.90;;;;;;5034201;28;20196;-57
2023/10/26 05:06:27;;;;;;;80.45;47.13;;;10.70;99.90;;;;;;5034596;28;20330;-55
2023/10/26 05:08:53;;;;;;;85.30;47.30;;;10.60;99.90;;;;;;5034050;28;20229;-55
2023/10/26 05:11:20;;;;;;;92.10;47.45;;;10.60;99.90;;;;;;5033819;28;20176;-56
2023/10/26 05:13:48;;;;;;;91.72;47.45;;;10.60;99.90;;;;;;5033741;28;20214;-59
2023/10/26 05:16:13;;;;;;;87.75;46.53;;;10.50;99.90;;;;;;5032132;28;20199;-57
2023/10/26 05:18:39;;;;;;;90.10;49.17;;;10.50;99.90;;;;;;5033441;28;20633;-55
2023/10/26 05:21:05;;;;;;;76.07;45.22;;;10.50;99.90;;;;;;5015775;28;20188;-57
2023/10/26 05:23:31;;;;;;;88.32;47.88;;;10.50;99.90;;;;;;5033509;28;20187;-57
2023/10/26 05:25:57;;;;;;;78.47;47.25;;;10.50;99.90;;;;;;5033335;28;20271;-57
2023/10/26 05:28:23;;;;;;;94.85;48.85;;;10.50;99.90;;;;;;5033625;28;20180;-55
2023/10/26 05:30:49;;;;;;;88.55;48.13;;;10.50;99.90;;;;;;5015677;28;20191;-52
2023/10/26 05:33:15;;;;;;;85.07;48.30;;;10.50;99.90;;;;;;5033633;28;20612;-56
2023/10/26 05:35:41;;;;;;;96.55;49.28;;;10.60;99.90;;;;;;5015770;28;20542;-56
2023/10/26 05:38:09;;;;;;;86.70;49.05;;;10.50;99.90;;;;;;5032894;28;20199;-56
2023/10/26 05:40:35;;;;;;;83.25;46.45;;;10.60;99.90;;;;;;5032988;28;20691;-58
2023/10/26 05:43:01;;;;;;;92.20;52.58;;;10.60;99.90;;;;;;5032873;28;20180;-55
2023/10/26 05:45:29;;;;;;;84.10;47.03;;;10.60;99.90;;;;;;5032958;28;20283;-60
2023/10/26 05:47:55;;;;;;;79.95;46.83;;;10.60;99.90;;;;;;5032761;28;20226;-55
2023/10/26 05:50:21;;;;;;;85.03;48.20;;;10.70;99.90;;;;;;5032686;28;20176;-57
2023/10/26 05:52:47;;;;;;;85.85;48.10;;;10.60;99.90;;;;;;5031504;28;20294;-57
2023/10/26 05:55:14;;;;;;;94.10;49.80;;;10.70;99.90;;;;;;5032588;28;20617;-62
2023/10/26 05:57:39;;;;;;;95.38;50.28;;;10.60;99.90;;;;;;5032845;28;20217;-60
2023/10/26 06:00:06;;;;;;;88.05;47.33;;;10.60;99.90;;;;;;5015009;28;20180;-56
2023/10/26 06:02:38;;;;;;;86.15;48.28;;;10.60;99.90;;;;;;5031250;28;20277;-57
2023/10/26 06:05:04;;;;;;;91.43;47.97;;;10.50;99.90;;;;;;5032089;28;20234;-59
2023/10/26 06:07:30;;;;;;;85.82;46.80;;;10.50;99.90;;;;;;5032863;28;20218;-56
2023/10/26 06:09:56;;;;;;;90.82;49.10;;;10.40;99.90;;;;;;5014550;28;20196;-53
2023/10/26 06:12:22;;;;;;;93.32;48.78;;;10.40;99.90;;;;;;5031163;28;20326;-50
2023/10/26 06:14:48;;;;;;;87.07;46.55;;;10.30;99.90;;;;;;5033044;28;20536;-57
2023/10/26 06:17:15;;;;;;;84.47;45.35;;;10.30;99.90;;;;;;5032359;28;20179;-59
2023/10/26 06:19:41;;;;;;;94.47;49.15;;;10.30;99.90;;;;;;5031716;28;20184;-56
2023/10/26 06:22:07;;;;;;;92.05;47.65;;;10.20;99.90;;;;;;5032065;28;20627;-54
2023/10/26 06:24:33;;;;;;;85.88;47.50;;;10.20;99.90;;;;;;5014323;28;20191;-57
2023/10/26 06:26:59;;;;;;;85.93;47.72;;;10.20;99.90;;;;;;5031213;28;20561;-56
2023/10/26 06:29:26;;;;;;;95.38;49.53;;;10.10;99.90;;;;;;5032343;28;20194;-56
2023/10/26 06:31:52;;;;;;;103.28;50.10;;;10.10;99.90;;;;;;5014001;28;20187;-51
2023/10/26 06:34:18;;;;;;;85.63;46.90;;;10.10;99.90;;;;;;5032256;28;20647;-56
2023/10/26 06:36:44;;;;;;;102.45;49.75;;;10.10;99.90;;;;;;5032377;28;20195;-58
2023/10/26 06:39:10;;;;;;;103.70;50.40;;;10.10;99.90;;;;;;5031827;28;20293;-56
2023/10/26 06:41:35;;;;;;;119.57;51.85;;;10.10;99.90;;;;;;5032453;28;20180;-56
2023/10/26 06:44:03;;;;;;;103.60;50.22;;;10.10;99.90;;;;;;5014415;28;20186;-52
2023/10/26 06:46:29;;;;;;;92.30;48.30;;;10.10;99.90;;;;;;5014216;28;20192;-54
2023/10/26 06:48:55;;;;;;;110.88;51.10;;;10.10;99.90;;;;;;5031744;28;20206;-59
2023/10/26 06:51:22;;;;;;;108.82;51.03;;;10.10;99.90;;;;;;5014827;28;20180;-59
2023/10/26 06:53:48;;;;;;;106.45;49.70;;;10.20;99.90;;;;;;5032159;28;20308;-56
2023/10/26 06:56:14;;;;;;;243.27;53.20;;;10.20;99.90;;;;;;5030454;28;20698;-56
2023/10/26 06:58:42;;;;;;;105.93;50.05;;;10.20;99.90;;;;;;5031565;28;20563;-58
2023/10/26 07:01:08;;;;;;;200.02;50.17;;;10.20;99.90;;;;;;5031517;28;20574;-56
2023/10/26 07:03:34;;;;;;;250.50;51.45;;;10.20;99.90;;;;;;5031817;28;20176;-54
2023/10/26 07:06:03;;;;;;;145.02;45.88;;;10.30;99.90;;;;;;5031046;28;20540;-55
2023/10/26 07:08:31;;;;;;;174.82;47.13;;;10.30;99.90;;;;;;4997583;28;20183;-54
2023/10/26 07:10:59;;;;;;;258.08;47.67;;;10.30;99.90;;;;;;5031186;28;20770;-58
2023/10/26 07:13:26;;;;;;;140.02;46.47;;;10.40;99.90;;;;;;5031571;28;20285;-58
2023/10/26 07:15:52;;;;;;;213.23;46.30;;;10.40;99.90;;;;;;5032004;28;20721;-58
2023/10/26 07:18:18;;;;;;;115.43;46.20;;;10.40;99.90;;;;;;4997252;28;20369;-60
2023/10/26 07:20:48;;;;;;;237.27;46.30;;;10.40;99.90;;;;;;5029905;28;20224;-58
2023/10/26 07:23:16;;;;;;;103.82;43.17;;;10.50;99.90;;;;;;5031197;28;20164;-58
2023/10/26 07:25:42;;;;;;;200.57;43.72;;;10.50;99.90;;;;;;5031255;28;20180;-58
2023/10/26 07:28:08;;;;;;;139.75;41.33;;;10.50;99.90;;;;;;5031355;28;20188;-55
2023/10/26 07:30:41;;;;;;;96.22;39.67;;;10.50;99.90;;;;;;5030975;28;20172;-53
2023/10/26 07:33:08;;;;;;;90.25;39.78;;;10.60;99.90;;;;;;5031174;28;20290;-54
2023/10/26 07:35:42;;;;;;;92.32;39.55;;;10.60;99.90;;;;;;5013639;28;20192;-55
2023/10/26 07:38:09;;;;;;;70.00;39.42;;;10.70;99.90;;;;;;5031292;28;20347;-56
2023/10/26 07:40:37;;;;;;;73.13;37.85;;;10.70;99.90;;;;;;5031069;28;20230;-57
2023/10/26 07:43:03;;;;;;;56.72;35.28;;;10.70;99.90;;;;;;5031656;28;20180;-60
2023/10/26 07:45:30;;;;;;;60.67;35.45;;;10.70;99.90;;;;;;5017441;28;20275;-57
2023/10/26 07:47:56;;;;;;;56.90;36.13;;;10.80;99.90;;;;;;5035070;28;20189;-56
2023/10/26 07:50:22;;;;;;;65.82;38.03;;;10.80;99.90;;;;;;5034911;28;20192;-57
2023/10/26 07:52:48;;;;;;;62.50;37.15;;;10.80;99.90;;;;;;5035038;28;20216;-57
2023/10/26 07:55:15;;;;;;;63.10;36.67;;;10.90;99.90;;;;;;5034373;28;20708;-60
2023/10/26 07:57:45;;;;;;;55.95;35.13;;;10.90;99.90;;;;;;5034498;28;20186;-57
2023/10/26 08:00:11;;;;;;;62.15;36.25;;;10.90;99.90;;;;;;5034223;28;20175;-60
2023/10/26 08:02:40;;;;;;;56.60;35.28;;;11.00;99.90;;;;;;5017729;28;20245;-53
2023/10/26 08:05:07;;;;;;;58.97;35.35;;;10.90;99.90;;;;;;5034270;28;20239;-59
2023/10/26 08:07:36;;;;;;;54.15;33.42;;;10.90;99.90;;;;;;5034589;28;20192;-57
2023/10/26 08:10:03;;;;;;;57.72;33.58;;;11.00;99.90;;;;;;5034521;28;20263;-58
2023/10/26 08:12:29;;;;;;;58.60;34.92;;;11.00;99.90;;;;;;5034194;28;20207;-60
2023/10/26 08:14:57;;;;;;;57.15;35.00;;;11.00;99.90;;;;;;5016356;28;20188;-57
2023/10/26 08:17:25;;;;;;;54.17;34.28;;;11.00;99.90;;;;;;5034144;28;20184;-56
2023/10/26 08:19:53;;;;;;;56.78;32.70;;;11.00;99.90;;;;;;5033514;28;20203;-58
2023/10/26 08:22:20;;;;;;;54.00;31.42;;;11.00;99.90;;;;;;5034423;28;20176;-57
2023/10/26 08:24:48;;;;;;;56.30;32.35;;;11.10;99.90;;;;;;5034023;28;20207;-57
2023/10/26 08:27:14;;;;;;;48.33;31.83;;;11.10;99.90;;;;;;5034008;28;20183;-59
2023/10/26 08:29:40;;;;;;;52.63;34.88;;;11.10;99.90;;;;;;5033844;28;20527;-55
2023/10/26 08:32:06;;;;;;;53.03;32.67;;;11.10;99.90;;;;;;5034093;28;20636;-57
2023/10/26 08:34:32;;;;;;;47.45;31.00;;;11.10;99.90;;;;;;5033920;28;20187;-58
2023/10/26 08:37:00;;;;;;;42.30;28.10;;;11.20;99.90;;;;;;5034139;28;20192;-57
2023/10/26 08:39:26;;;;;;;41.55;28.25;;;11.20;99.90;;;;;;5015994;28;20180;-59
2023/10/26 08:41:57;;;;;;;45.13;29.13;;;11.30;99.90;;;;;;5033824;28;20182;-61
2023/10/26 08:44:25;;;;;;;39.30;27.02;;;11.30;99.90;;;;;;5016513;28;20633;-59
2023/10/26 08:46:57;;;;;;;44.58;29.05;;;11.40;99.90;;;;;;5033693;28;20267;-56
2023/10/26 08:49:27;;;;;;;44.55;29.08;;;11.40;99.90;;;;;;5033421;28;20164;-57
2023/10/26 08:51:53;;;;;;;41.55;28.80;;;11.50;99.90;;;;;;5015595;28;20225;-60
2023/10/26 08:54:19;;;;;;;41.55;27.60;;;11.50;99.90;;;;;;5032897;28;20203;-60
2023/10/26 08:56:45;;;;;;;42.60;27.75;;;11.50;99.90;;;;;;5033160;28;20187;-57
2023/10/26 08:59:11;;;;;;;40.90;27.48;;;11.60;99.90;;;;;;4999629;28;20176;-57
2023/10/26 09:01:37;;;;;;;44.22;29.10;;;11.60;99.90;;;;;;5033876;28;20184;-58
2023/10/26 09:04:10;;;;;;;44.08;27.60;;;11.70;99.90;;;;;;5033044;28;20226;-57
2023/10/26 09:06:43;;;;;;;43.53;27.83;;;11.70;99.90;;;;;;5014769;28;20587;-56
2023/10/26 09:09:08;;;;;;;41.92;28.08;;;11.80;99.90;;;;;;5032992;28;20164;-57
2023/10/26 09:11:35;;;;;;;46.70;30.80;;;11.80;99.90;;;;;;5015735;28;20187;-61
2023/10/26 09:14:14;;;;;;;41.78;29.10;;;11.80;99.90;;;;;;5033109;28;20223;-55
2023/10/26 09:16:41;;;;;;;43.08;29.65;;;11.80;99.90;;;;;;5015561;28;20229;-60
2023/10/26 09:19:07;;;;;;;44.00;29.17;;;11.80;99.90;;;;;;5033198;28;20230;-59
2023/10/26 09:21:49;;;;;;;42.80;28.65;;;11.90;99.90;;;;;;5033008;28;20326;-59
2023/10/26 09:24:24;;;;;;;46.10;28.40;;;11.90;99.90;;;;;;5032547;28;20640;-59
2023/10/26 09:26:54;;;;;;;42.97;28.58;;;11.90;99.90;;;;;;5033225;28;20199;-62
2023/10/26 09:29:34;;;;;;;44.03;29.17;;;11.90;99.90;;;;;;5032817;28;20187;-57
2023/10/26 09:32:00;;;;;;;40.33;28.05;;;11.90;99.90;;;;;;5032615;28;20259;-54
2023/10/26 09:34:27;;;;;;;42.50;28.65;;;11.90;99.90;;;;;;5032725;28;20526;-59
2023/10/26 09:37:00;;;;;;;45.10;29.88;;;11.90;99.90;;;;;;5032758;28;20188;-56
2023/10/26 09:39:35;;;;;;;50.03;31.02;;;11.90;99.90;;;;;;5015028;28;20176;-58
2023/10/26 09:42:02;;;;;;;44.35;31.15;;;11.90;99.90;;;;;;5032589;28;20259;-58
2023/10/26 09:44:30;;;;;;;43.88;29.58;;;11.90;99.90;;;;;;5032426;28;20262;-60
2023/10/26 09:46:57;;;;;;;44.10;30.45;;;12.00;99.90;;;;;;5032667;28;20253;-57
2023/10/26 09:49:26;;;;;;;41.05;29.15;;;12.00;99.90;;;;;;5032123;28;20199;-59
2023/10/26 09:51:53;;;;;;;41.58;28.52;;;12.00;99.90;;;;;;5032539;28;20244;-58
2023/10/26 09:54:22;;;;;;;45.63;30.88;;;12.10;99.90;;;;;;5032342;28;20212;-57
2023/10/26 09:56:56;;;;;;;54.40;35.63;;;12.20;99.90;;;;;;5032137;28;20573;-56
2023/10/26 09:59:24;;;;;;;50.85;34.10;;;12.20;99.90;;;;;;5032081;28;20597;-54
2023/10/26 10:01:50;;;;;;;50.88;33.00;;;12.30;99.90;;;;;;5032161;28;20577;-59
2023/10/26 10:04:18;;;;;;;45.75;31.85;;;12.40;99.90;;;;;;5032073;28;20207;-58
2023/10/26 10:06:44;;;;;;;52.22;34.03;;;12.40;99.90;;;;;;5031492;28;20231;-55
2023/10/26 10:09:13;;;;;;;52.47;33.63;;;12.50;99.90;;;;;;5014713;28;20258;-58
2023/10/26 10:11:40;;;;;;;47.63;32.90;;;12.50;99.90;;;;;;5031958;28;20640;-56
2023/10/26 10:14:06;;;;;;;56.97;35.60;;;12.70;99.90;;;;;;5014180;28;20211;-60
2023/10/26 10:16:35;;;;;;;49.40;34.38;;;12.70;99.90;;;;;;5030866;28;20175;-61
2023/10/26 10:19:23;;;;;;;50.45;33.53;;;12.70;99.90;;;;;;5031971;28;20180;-59
2023/10/26 10:21:51;;;;;;;52.50;34.17;;;12.80;99.90;;;;;;5031009;28;20230;-57
2023/10/26 10:24:44;;;;;;;47.15;32.35;;;12.80;99.90;;;;;;5031789;28;20180;-58
2023/10/26 10:27:13;;;;;;;48.63;32.42;;;12.90;99.90;;;;;;5031674;28;20202;-60
2023/10/26 10:29:40;;;;;;;49.63;33.58;;;13.00;99.90;;;;;;5031328;28;20222;-60
2023/10/26 10:32:06;;;;;;;51.05;35.25;;;13.00;99.90;;;;;;5031878;28;20178;-56
2023/10/26 10:34:43;;;;;;;51.88;34.75;;;13.00;99.90;;;;;;5031851;28;20190;-57
2023/10/26 10:37:12;;;;;;;51.38;34.42;;;13.10;99.90;;;;;;5031730;28;20168;-59
2023/10/26 10:39:59;;;;;;;59.33;33.80;;;13.10;99.90;;;;;;5032287;28;20275;-57
2023/10/26 10:42:25;;;;;;;47.00;32.88;;;13.20;99.90;;;;;;5031516;28;20187;-59
2023/10/26 10:44:52;;;;;;;47.50;33.50;;;13.20;99.90;;;;;;5030138;28;20214;-60
2023/10/26 10:47:18;;;;;;;50.83;34.13;;;13.20;99.90;;;;;;5031555;28;20203;-59
2023/10/26 10:49:44;;;;;;;51.13;34.38;;;13.20;99.90;;;;;;5031760;28;20183;-55
2023/10/26 10:52:14;;;;;;;56.13;35.72;;;13.20;99.90;;;;;;5030484;28;20207;-56
2023/10/26 10:54:49;;;;;;;52.08;33.28;;;13.10;99.90;;;;;;5031968;28;20225;-60
2023/10/26 10:57:15;;;;;;;48.83;34.05;;;13.10;99.90;;;;;;5031682;28;20178;-60
2023/10/26 10:59:41;;;;;;;46.50;33.05;;;13.20;99.90;;;;;;5031431;28;20187;-61
2023/10/26 11:02:09;;;;;;;49.00;33.45;;;13.20;99.90;;;;;;5031036;28;20172;-61
2023/10/26 11:04:35;;;;;;;48.90;33.92;;;13.10;99.90;;;;;;5031257;28;20267;-58
2023/10/26 11:07:01;;;;;;;49.33;33.40;;;13.10;99.90;;;;;;5031517;28;20187;-60
2023/10/26 11:09:37;;;;;;;51.10;34.97;;;13.10;99.90;;;;;;5031002;28;20184;-61
2023/10/26 11:12:11;;;;;;;49.30;35.45;;;13.10;99.90;;;;;;5031227;28;20175;-56
2023/10/26 11:14:46;;;;;;;58.53;38.15;;;13.10;99.90;;;;;;5031513;28;20176;-60
2023/10/26 11:17:14;;;;;;;55.28;38.03;;;13.10;99.90;;;;;;5014226;28;20221;-61
2023/10/26 11:19:40;;;;;;;54.13;37.28;;;13.10;99.90;;;;;;5017938;28;20267;-62
2023/10/26 11:22:06;;;;;;;53.65;36.08;;;13.00;99.90;;;;;;5035506;28;20295;-61
2023/10/26 11:24:32;;;;;;;56.40;37.55;;;13.10;99.90;;;;;;5035506;28;20192;-59
2023/10/26 11:27:10;;;;;;;59.83;38.25;;;13.10;99.90;;;;;;5035036;28;20195;-58
2023/10/26 11:29:37;;;;;;;51.15;34.05;;;13.10;99.90;;;;;;5034687;28;20187;-57
2023/10/26 11:32:16;;;;;;;48.63;34.88;;;13.10;99.90;;;;;;5016968;28;20241;-59
2023/10/26 11:35:08;;;;;;;54.30;35.10;;;13.20;99.90;;;;;;5035319;28;20336;-58
2023/10/26 11:37:40;;;;;;;46.22;31.80;;;13.20;99.90;;;;;;5017265;28;20210;-59
2023/10/26 11:40:08;;;;;;;46.80;33.00;;;13.20;99.90;;;;;;5034809;28;20245;-59
2023/10/26 11:42:53;;;;;;;45.05;31.00;;;13.20;99.90;;;;;;5035281;28;20172;-58
2023/10/26 11:45:21;;;;;;;49.50;32.13;;;13.20;99.90;;;;;;5035469;28;20176;-60
2023/10/26 11:47:51;;;;;;;50.60;34.05;;;13.10;99.90;;;;;;5035013;28;20180;-59
2023/10/26 11:50:21;;;;;;;48.92;30.98;;;13.10;99.90;;;;;;5000930;28;20208;-56
2023/10/26 11:52:47;;;;;;;50.30;33.97;;;13.10;99.90;;;;;;5016850;28;20672;-58
2023/10/26 11:55:14;;;;;;;49.00;34.22;;;13.10;99.90;;;;;;5035059;28;20188;-60
2023/10/26 11:57:43;;;;;;;49.10;33.40;;;13.10;99.90;;;;;;5034338;28;20545;-58
2023/10/26 12:00:09;;;;;;;57.30;35.17;;;13.10;99.90;;;;;;5034392;28;20262;-57
2023/10/26 12:02:40;;;;;;;53.78;35.28;;;13.10;99.90;;;;;;5034737;28;20616;-58
2023/10/26 12:05:07;;;;;;;55.22;35.25;;;13.00;99.90;;;;;;5034591;28;20369;-61
2023/10/26 12:07:33;;;;;;;55.13;35.10;;;13.00;99.90;;;;;;5034846;28;20195;-65
2023/10/26 12:10:03;;;;;;;54.20;36.17;;;13.00;99.90;;;;;;5035066;28;20270;-59
2023/10/26 12:12:28;;;;;;;59.45;37.63;;;13.00;99.90;;;;;;5034447;28;20762;-60
2023/10/26 12:14:54;;;;;;;54.13;34.63;;;13.00;99.90;;;;;;5034191;28;20286;-57
2023/10/26 12:17:21;;;;;;;52.72;32.63;;;12.90;99.90;;;;;;5034579;28;20255;-55
2023/10/26 12:19:47;;;;;;;52.25;32.33;;;12.90;99.90;;;;;;5016762;28;20234;-60
2023/10/26 12:22:13;;;;;;;48.28;30.77;;;12.90;99.90;;;;;;5034859;28;20184;-59
2023/10/26 12:24:39;;;;;;;47.72;30.42;;;12.90;99.90;;;;;;5033280;28;20219;-60
2023/10/26 12:27:05;;;;;;;48.65;31.67;;;12.90;99.90;;;;;;5016359;28;20188;-58